Terminal Aerodrome Forecast
Issued by NWS

Home | Current Version | Previous Version | Text Only | Print | Product List | Glossary On
Versions: 1 2 3 4 5 6 7 8 9 10 11 12 13 14
786
FTUS46 KSEW 191757
TAFOLM
TAF
KOLM 191757Z 1918/2018 20015G22KT P6SM SCT030 OVC050
     FM192200 20014G23KT 3SM -RA BR SCT007 BKN014 OVC025
     FM200200 20014G22KT 2SM RA BR OVC007
     FM200700 20007KT 4SM -RA BR BKN008 OVC015
     FM201000 23004KT P6SM VCSH SCT008 BKN030=

USA.gov is the U.S. government's official web portal to all federal, state and local government web resources and services.